Погода Дымницана 2 недели

Поморское воеводство, Польша

18 - 31 июля
  • 18июля
    Сегодня
    +15°
    +20°
    Практически безоблачно
    ВремяПогодаТемператураВлажностьДавлениеВетер, м/сВероятность осадков
    02:00Небольшая облачность+17°C82 %764 мм4.8 м/с2 %
    05:00Небольшая облачность+16°C90 %764 мм5.6 м/с9 %
    08:00Небольшая облачность и лёгкий дождик+18°C83 %764 мм6.5 м/с24 %
    11:00Ясно и безоблачно+19°C81 %765 мм7.7 м/с7 %
    14:00Практически безоблачно+19°C76 %766 мм7.9 м/с2 %
    17:00Облачно с прояснениями+19°C75 %766 мм8.5 м/с1 %
    20:00Ясно и безоблачно+18°C77 %766 мм6.8 м/с2 %
    23:00Ясно и безоблачно+17°C82 %766 мм4.7 м/с2 %
  • 19июля
    Пятница
    +14°
    +21°
    Ясно и безоблачно
    ВремяПогодаТемператураВлажностьДавлениеВетер, м/сВероятность осадков
    02:00Ясно и безоблачно+16°C88 %766 мм4.3 м/с2 %
    05:00Ясно и безоблачно+15°C91 %766 мм4.2 м/с2 %
    08:00Ясно и безоблачно+19°C82 %766 мм5.6 м/с2 %
    11:00Облачно с прояснениями+20°C76 %766 мм6.0 м/с2 %
    14:00Ясно и безоблачно+20°C73 %765 мм6.3 м/с2 %
    17:00Ясно и безоблачно+20°C75 %765 мм6.0 м/с2 %
    20:00Ясно и безоблачно+18°C82 %764 мм4.2 м/с2 %
    23:00Ясно и безоблачно+16°C88 %763 мм2.6 м/с2 %
  • 20июля
    Суббота
    +14°
    +21°
    Ясно и безоблачно
    ВремяПогодаТемператураВлажностьДавлениеВетер, м/сВероятность осадков
    02:00Облачно с прояснениями+15°C89 %763 мм2.9 м/с2 %
    05:00Ясно и безоблачно+14°C93 %762 мм2.7 м/с2 %
    08:00Ясно и безоблачно+19°C87 %762 мм3.0 м/с2 %
    11:00Ясно и безоблачно+21°C82 %761 мм3.3 м/с2 %
    14:00Ясно и безоблачно+21°C82 %761 мм3.9 м/с2 %
    17:00Ясно и безоблачно+20°C82 %760 мм3.9 м/с2 %
    20:00Ясно и безоблачно+19°C82 %760 мм2.0 м/с2 %
    23:00Ясно и безоблачно+16°C90 %759 мм2.0 м/с2 %
  • 21июля
    Воскресенье
    +16°
    +25°
    Ясно и безоблачно
    ВремяПогодаТемператураВлажностьДавлениеВетер, м/сВероятность осадков
    02:00Ясно и безоблачно+15°C94 %759 мм1.9 м/с2 %
    05:00Практически безоблачно+15°C97 %758 мм1.8 м/с2 %
    08:00Ясно и безоблачно+20°C85 %758 мм2.4 м/с2 %
    11:00Ясно и безоблачно+23°C75 %758 мм3.8 м/с2 %
    14:00Ясно и безоблачно+23°C72 %757 мм5.4 м/с2 %
    17:00Ясно и безоблачно+24°C72 %757 мм5.6 м/с2 %
    20:00Ясно и безоблачно+23°C75 %757 мм4.6 м/с2 %
    23:00Ясно и безоблачно+18°C84 %757 мм3.9 м/с2 %
  • 22июля
    Понедельник
    +16°
    +25°
    Небольшая облачность и лёгкий дождик
    ВремяПогодаТемператураВлажностьДавлениеВетер, м/сВероятность осадков
    02:00Ясно и безоблачно+17°C87 %757 мм3.4 м/с2 %
    05:00Ясно и безоблачно+17°C92 %757 мм2.5 м/с9 %
    08:00Ясно и безоблачно+20°C86 %757 мм3.5 м/с25 %
    11:00Ясно и безоблачно+24°C72 %758 мм3.3 м/с41 %
    14:00Небольшая облачность и лёгкий дождик+24°C73 %757 мм4.9 м/с51 %
    17:00Небольшая облачность+20°C74 %757 мм5.5 м/с45 %
    20:00Облачно с прояснениями+19°C77 %757 мм5.6 м/с28 %
    23:00Пасмурно, небольшой дождь+18°C91 %758 мм4.6 м/с19 %
Мы используем cookies
Соглашаюсь